sensor_id;sensor_type;location;lat;lon;timestamp;pressure;altitude;pressure_sealevel;temperature;humidity
56668;BME280;42542;48.360;10.958;2023-03-21T00:00:40;96350.88;;;7.30;84.49
56668;BME280;42542;48.360;10.958;2023-03-21T00:03:48;96347.13;;;7.33;84.57
56668;BME280;42542;48.360;10.958;2023-03-21T00:06:53;96347.97;;;7.33;84.51
56668;BME280;42542;48.360;10.958;2023-03-21T00:09:56;96350.63;;;7.33;84.67
56668;BME280;42542;48.360;10.958;2023-03-21T00:13:15;96346.16;;;7.34;84.56
56668;BME280;42542;48.360;10.958;2023-03-21T00:16:19;96339.16;;;7.33;84.94
56668;BME280;42542;48.360;10.958;2023-03-21T00:19:30;96330.31;;;7.32;85.01
56668;BME280;42542;48.360;10.958;2023-03-21T00:22:38;96330.19;;;7.34;85.25
56668;BME280;42542;48.360;10.958;2023-03-21T00:25:42;96331.03;;;7.34;85.12
56668;BME280;42542;48.360;10.958;2023-03-21T00:28:55;96330.03;;;7.35;85.00
56668;BME280;42542;48.360;10.958;2023-03-21T00:31:58;96327.38;;;7.35;85.10
56668;BME280;42542;48.360;10.958;2023-03-21T00:35:04;96334.50;;;7.35;84.89
56668;BME280;42542;48.360;10.958;2023-03-21T00:38:27;96326.53;;;7.35;85.37
56668;BME280;42542;48.360;10.958;2023-03-21T00:41:29;96341.50;;;7.36;84.87
56668;BME280;42542;48.360;10.958;2023-03-21T00:44:43;96323.88;;;7.35;85.03
56668;BME280;42542;48.360;10.958;2023-03-21T00:47:47;96316.75;;;7.35;85.34
56668;BME280;42542;48.360;10.958;2023-03-21T00:50:50;96310.44;;;7.36;85.26
56668;BME280;42542;48.360;10.958;2023-03-21T00:53:57;96313.09;;;7.36;85.53
56668;BME280;42542;48.360;10.958;2023-03-21T00:57:02;96307.91;;;7.35;85.86
56668;BME280;42542;48.360;10.958;2023-03-21T01:00:09;96299.81;;;7.36;85.56
56668;BME280;42542;48.360;10.958;2023-03-21T01:03:13;96298.00;;;7.37;85.96
56668;BME280;42542;48.360;10.958;2023-03-21T01:06:25;96292.81;;;7.35;85.82
56668;BME280;42542;48.360;10.958;2023-03-21T01:09:29;96288.50;;;7.34;85.94
56668;BME280;42542;48.360;10.958;2023-03-21T01:12:31;96290.16;;;7.35;85.79
56668;BME280;42542;48.360;10.958;2023-03-21T01:15:45;96287.78;;;7.32;86.19
56668;BME280;42542;48.360;10.958;2023-03-21T01:18:49;96292.81;;;7.35;85.84
56668;BME280;42542;48.360;10.958;2023-03-21T01:21:53;96299.13;;;7.34;86.04
56668;BME280;42542;48.360;10.958;2023-03-21T01:24:57;96298.28;;;7.34;86.21
56668;BME280;42542;48.360;10.958;2023-03-21T01:28:19;96297.44;;;7.33;86.17
56668;BME280;42542;48.360;10.958;2023-03-21T01:31:24;96285.41;;;7.29;86.28
56668;BME280;42542;48.360;10.958;2023-03-21T01:34:28;96294.22;;;7.30;86.34
56668;BME280;42542;48.360;10.958;2023-03-21T01:37:35;96294.22;;;7.30;86.13
56668;BME280;42542;48.360;10.958;2023-03-21T01:40:40;96293.38;;;7.29;86.77
56668;BME280;42542;48.360;10.958;2023-03-21T01:43:54;96300.66;;;7.27;86.50
56668;BME280;42542;48.360;10.958;2023-03-21T01:47:02;96292.97;;;7.24;86.57
56668;BME280;42542;48.360;10.958;2023-03-21T01:50:33;96290.44;;;7.23;86.18
56668;BME280;42542;48.360;10.958;2023-03-21T01:53:50;96291.28;;;7.23;86.30
56668;BME280;42542;48.360;10.958;2023-03-21T01:56:58;96291.97;;;7.25;86.93
56668;BME280;42542;48.360;10.958;2023-03-21T02:00:04;96282.19;;;7.26;86.89
56668;BME280;42542;48.360;10.958;2023-03-21T02:03:24;96279.66;;;7.24;86.75
56668;BME280;42542;48.360;10.958;2023-03-21T02:07:13;96278.56;;;7.27;87.34
56668;BME280;42542;48.360;10.958;2023-03-21T02:10:31;96276.03;;;7.25;87.25
56668;BME280;42542;48.360;10.958;2023-03-21T02:13:34;96280.38;;;7.26;87.34
56668;BME280;42542;48.360;10.958;2023-03-21T02:16:54;96270.72;;;7.25;87.62
56668;BME280;42542;48.360;10.958;2023-03-21T02:27:53;96264.44;;;7.26;87.49
56668;BME280;42542;48.360;10.958;2023-03-21T02:31:24;96268.91;;;7.26;87.51
56668;BME280;42542;48.360;10.958;2023-03-21T02:38:02;96261.75;;;7.26;87.95
56668;BME280;42542;48.360;10.958;2023-03-21T02:41:40;96266.91;;;7.28;88.27
56668;BME280;42542;48.360;10.958;2023-03-21T02:45:02;96264.97;;;7.30;87.94
56668;BME280;42542;48.360;10.958;2023-03-21T02:48:15;96259.94;;;7.27;88.28
56668;BME280;42542;48.360;10.958;2023-03-21T02:51:34;96259.66;;;7.30;88.30
56668;BME280;42542;48.360;10.958;2023-03-21T02:54:40;96259.66;;;7.30;88.05
56668;BME280;42542;48.360;10.958;2023-03-21T02:57:55;96260.50;;;7.30;88.29
56668;BME280;42542;48.360;10.958;2023-03-21T03:01:12;96260.63;;;7.29;88.11
56668;BME280;42542;48.360;10.958;2023-03-21T03:04:23;96263.84;;;7.32;88.52
56668;BME280;42542;48.360;10.958;2023-03-21T03:08:00;96263.84;;;7.32;88.12
56668;BME280;42542;48.360;10.958;2023-03-21T03:14:41;96254.91;;;7.33;88.51
56668;BME280;42542;48.360;10.958;2023-03-21T03:18:18;96254.91;;;7.33;88.82
56668;BME280;42542;48.360;10.958;2023-03-21T03:21:44;96249.59;;;7.33;88.69
56668;BME280;42542;48.360;10.958;2023-03-21T03:25:01;96248.75;;;7.33;88.77
56668;BME280;42542;48.360;10.958;2023-03-21T03:28:36;96249.59;;;7.33;88.75
56668;BME280;42542;48.360;10.958;2023-03-21T03:31:59;96250.44;;;7.34;88.75
56668;BME280;42542;48.360;10.958;2023-03-21T03:35:12;96248.75;;;7.33;89.02
56668;BME280;42542;48.360;10.958;2023-03-21T03:38:21;96251.53;;;7.31;88.96
56668;BME280;42542;48.360;10.958;2023-03-21T03:41:27;96249.00;;;7.30;88.70
56668;BME280;42542;48.360;10.958;2023-03-21T03:44:37;96244.53;;;7.30;89.39
56668;BME280;42542;48.360;10.958;2023-03-21T03:47:50;96237.53;;;7.29;89.03
56668;BME280;42542;48.360;10.958;2023-03-21T03:51:09;96239.22;;;7.30;89.20
56668;BME280;42542;48.360;10.958;2023-03-21T03:54:58;96238.50;;;7.28;89.54
56668;BME280;42542;48.360;10.958;2023-03-21T03:58:05;96233.38;;;7.27;89.53
56668;BME280;42542;48.360;10.958;2023-03-21T04:01:21;96239.53;;;7.27;89.73
56668;BME280;42542;48.360;10.958;2023-03-21T04:04:23;96237.97;;;7.25;89.41
56668;BME280;42542;48.360;10.958;2023-03-21T04:07:30;96242.31;;;7.26;89.68
56668;BME280;42542;48.360;10.958;2023-03-21T04:10:35;96228.44;;;7.22;89.57
56668;BME280;42542;48.360;10.958;2023-03-21T04:13:37;96240.75;;;7.23;89.93
56668;BME280;42542;48.360;10.958;2023-03-21T04:16:46;96238.09;;;7.23;89.81
56668;BME280;42542;48.360;10.958;2023-03-21T04:19:48;96235.75;;;7.20;89.94
56668;BME280;42542;48.360;10.958;2023-03-21T04:23:06;96233.34;;;7.17;89.42
56668;BME280;42542;48.360;10.958;2023-03-21T04:26:13;96232.50;;;7.17;89.82
56668;BME280;42542;48.360;10.958;2023-03-21T04:29:24;96227.34;;;7.15;89.80
56668;BME280;42542;48.360;10.958;2023-03-21T04:32:44;96231.81;;;7.15;89.92
56668;BME280;42542;48.360;10.958;2023-03-21T04:35:59;96228.47;;;7.13;90.37
56668;BME280;42542;48.360;10.958;2023-03-21T04:39:05;96236.28;;;7.14;90.49
56668;BME280;42542;48.360;10.958;2023-03-21T04:42:16;96230.97;;;7.14;90.66
56668;BME280;42542;48.360;10.958;2023-03-21T04:45:19;96237.97;;;7.15;90.58
56668;BME280;42542;48.360;10.958;2023-03-21T04:48:21;96237.00;;;7.16;90.89
56668;BME280;42542;48.360;10.958;2023-03-21T04:51:25;96225.94;;;7.11;90.56
56668;BME280;42542;48.360;10.958;2023-03-21T04:54:27;96234.47;;;7.15;90.28
56668;BME280;42542;48.360;10.958;2023-03-21T04:57:30;96236.28;;;7.14;91.03
56668;BME280;42542;48.360;10.958;2023-03-21T05:00:32;96231.81;;;7.15;91.19
56668;BME280;42542;48.360;10.958;2023-03-21T05:03:38;96231.81;;;7.15;90.69
56668;BME280;42542;48.360;10.958;2023-03-21T05:06:43;96221.47;;;7.12;90.84
56668;BME280;42542;48.360;10.958;2023-03-21T05:09:51;96231.69;;;7.16;91.21
56668;BME280;42542;48.360;10.958;2023-03-21T05:12:53;96230.13;;;7.14;91.09
56668;BME280;42542;48.360;10.958;2023-03-21T05:15:55;96233.50;;;7.16;91.01
56668;BME280;42542;48.360;10.958;2023-03-21T05:18:58;96236.16;;;7.16;90.94
56668;BME280;42542;48.360;10.958;2023-03-21T05:22:09;96230.00;;;7.15;91.07
56668;BME280;42542;48.360;10.958;2023-03-21T05:25:13;96227.34;;;7.15;91.10
56668;BME280;42542;48.360;10.958;2023-03-21T05:28:32;96229.16;;;7.15;91.10
56668;BME280;42542;48.360;10.958;2023-03-21T05:31:38;96230.97;;;7.14;91.12
56668;BME280;42542;48.360;10.958;2023-03-21T05:34:45;96224.00;;;7.13;91.18
56668;BME280;42542;48.360;10.958;2023-03-21T05:37:51;96231.97;;;7.13;90.95
56668;BME280;42542;48.360;10.958;2023-03-21T05:40:54;96229.16;;;7.15;90.94
56668;BME280;42542;48.360;10.958;2023-03-21T05:43:58;96231.69;;;7.16;90.96
56668;BME280;42542;48.360;10.958;2023-03-21T05:47:00;96237.00;;;7.16;91.25
56668;BME280;42542;48.360;10.958;2023-03-21T05:50:12;96241.34;;;7.17;91.05
56668;BME280;42542;48.360;10.958;2023-03-21T05:53:19;96245.66;;;7.18;91.35
56668;BME280;42542;48.360;10.958;2023-03-21T05:56:24;96234.06;;;7.19;91.18
56668;BME280;42542;48.360;10.958;2023-03-21T05:59:31;96242.72;;;7.21;91.19
56668;BME280;42542;48.360;10.958;2023-03-21T06:02:33;96245.09;;;7.24;91.31
56668;BME280;42542;48.360;10.958;2023-03-21T06:05:41;96250.28;;;7.26;91.08
56668;BME280;42542;48.360;10.958;2023-03-21T06:08:51;96257.13;;;7.28;91.26
56668;BME280;42542;48.360;10.958;2023-03-21T06:11:55;96250.81;;;7.29;91.26
56668;BME280;42542;48.360;10.958;2023-03-21T06:14:59;96256.84;;;7.31;91.22
56668;BME280;42542;48.360;10.958;2023-03-21T06:18:06;96254.06;;;7.33;91.37
56668;BME280;42542;48.360;10.958;2023-03-21T06:21:11;96245.25;;;7.32;91.02
56668;BME280;42542;48.360;10.958;2023-03-21T06:24:14;96250.13;;;7.37;91.68
56668;BME280;42542;48.360;10.958;2023-03-21T06:27:21;96251.53;;;7.41;91.43
56668;BME280;42542;48.360;10.958;2023-03-21T06:30:26;96256.56;;;7.44;91.26
56668;BME280;42542;48.360;10.958;2023-03-21T06:33:44;96254.47;;;7.48;91.51
56668;BME280;42542;48.360;10.958;2023-03-21T06:36:46;96248.16;;;7.49;91.38
56668;BME280;42542;48.360;10.958;2023-03-21T06:39:54;96261.03;;;7.53;91.07
56668;BME280;42542;48.360;10.958;2023-03-21T06:42:57;96250.25;;;7.55;91.42
56668;BME280;42542;48.360;10.958;2023-03-21T06:46:00;96251.78;;;7.57;91.18
56668;BME280;42542;48.360;10.958;2023-03-21T06:49:02;96255.00;;;7.61;90.81
56668;BME280;42542;48.360;10.958;2023-03-21T06:52:04;96261.69;;;7.65;90.85
56668;BME280;42542;48.360;10.958;2023-03-21T06:55:07;96253.44;;;7.68;90.73
56668;BME280;42542;48.360;10.958;2023-03-21T06:58:10;96252.59;;;7.67;90.70
56668;BME280;42542;48.360;10.958;2023-03-21T07:01:12;96258.31;;;7.72;91.02
56668;BME280;42542;48.360;10.958;2023-03-21T07:04:29;96254.56;;;7.75;90.67
56668;BME280;42542;48.360;10.958;2023-03-21T07:07:32;96255.78;;;7.80;90.74
56668;BME280;42542;48.360;10.958;2023-03-21T07:10:34;96254.53;;;7.84;90.57
56668;BME280;42542;48.360;10.958;2023-03-21T07:13:40;96255.91;;;7.89;90.11
56668;BME280;42542;48.360;10.958;2023-03-21T07:16:42;96258.97;;;7.94;89.80
56668;BME280;42542;48.360;10.958;2023-03-21T07:19:43;96255.91;;;7.98;90.32
56668;BME280;42542;48.360;10.958;2023-03-21T07:22:46;96263.31;;;8.04;90.46
56668;BME280;42542;48.360;10.958;2023-03-21T07:25:49;96259.22;;;8.10;90.05
56668;BME280;42542;48.360;10.958;2023-03-21T07:28:51;96259.59;;;8.15;90.15
56668;BME280;42542;48.360;10.958;2023-03-21T07:31:55;96255.53;;;8.20;89.78
56668;BME280;42542;48.360;10.958;2023-03-21T07:34:59;96257.47;;;8.28;89.72
56668;BME280;42542;48.360;10.958;2023-03-21T07:38:03;96253.41;;;8.34;89.72
56668;BME280;42542;48.360;10.958;2023-03-21T07:41:06;96251.81;;;8.41;89.22
56668;BME280;42542;48.360;10.958;2023-03-21T07:44:08;96253.91;;;8.47;89.13
56668;BME280;42542;48.360;10.958;2023-03-21T07:47:11;96250.50;;;8.54;89.25
56668;BME280;42542;48.360;10.958;2023-03-21T07:50:13;96253.41;;;8.61;89.10
56668;BME280;42542;48.360;10.958;2023-03-21T07:53:16;96254.47;;;8.68;88.22
56668;BME280;42542;48.360;10.958;2023-03-21T07:56:17;96250.22;;;8.75;88.41
56668;BME280;42542;48.360;10.958;2023-03-21T07:59:20;96249.75;;;8.80;87.84
56668;BME280;42542;48.360;10.958;2023-03-21T08:02:22;96251.53;;;8.89;87.88
56668;BME280;42542;48.360;10.958;2023-03-21T08:05:27;96246.59;;;8.94;87.95
56668;BME280;42542;48.360;10.958;2023-03-21T08:08:29;96257.34;;;9.02;87.70
56668;BME280;42542;48.360;10.958;2023-03-21T08:11:32;96255.59;;;9.11;87.97
56668;BME280;42542;48.360;10.958;2023-03-21T08:14:34;96261.84;;;9.19;87.20
56668;BME280;42542;48.360;10.958;2023-03-21T08:17:37;96260.09;;;9.28;86.25
56668;BME280;42542;48.360;10.958;2023-03-21T08:20:40;96260.00;;;9.37;86.55
56668;BME280;42542;48.360;10.958;2023-03-21T08:23:42;96260.91;;;9.46;86.21
56668;BME280;42542;48.360;10.958;2023-03-21T08:26:44;96253.66;;;9.56;85.75
56668;BME280;42542;48.360;10.958;2023-03-21T08:29:47;96254.56;;;9.65;85.27
56668;BME280;42542;48.360;10.958;2023-03-21T08:32:48;96244.78;;;9.73;85.52
56668;BME280;42542;48.360;10.958;2023-03-21T08:35:50;96242.66;;;9.77;83.63
56668;BME280;42542;48.360;10.958;2023-03-21T08:38:52;96236.31;;;9.78;82.65
56668;BME280;42542;48.360;10.958;2023-03-21T08:41:58;96237.38;;;9.85;81.09
56668;BME280;42542;48.360;10.958;2023-03-21T08:45:00;96240.94;;;9.94;81.94
56668;BME280;42542;48.360;10.958;2023-03-21T08:48:03;96241.13;;;10.00;81.18
56668;BME280;42542;48.360;10.958;2023-03-21T08:51:05;96241.34;;;10.07;80.26
56668;BME280;42542;48.360;10.958;2023-03-21T08:54:17;96235.75;;;10.18;80.25
56668;BME280;42542;48.360;10.958;2023-03-21T08:57:19;96234.13;;;10.25;80.41
56668;BME280;42542;48.360;10.958;2023-03-21T09:00:21;96231.78;;;10.30;78.12
56668;BME280;42542;48.360;10.958;2023-03-21T09:03:24;96237.03;;;10.40;78.88
56668;BME280;42542;48.360;10.958;2023-03-21T09:06:27;96232.22;;;10.43;78.32
56668;BME280;42542;48.360;10.958;2023-03-21T09:09:30;96234.22;;;10.49;76.25
56668;BME280;42542;48.360;10.958;2023-03-21T09:12:33;96232.91;;;10.53;76.23
56668;BME280;42542;48.360;10.958;2023-03-21T09:15:36;96235.09;;;10.58;76.93
56668;BME280;42542;48.360;10.958;2023-03-21T09:18:39;96227.63;;;10.70;76.97
56668;BME280;42542;48.360;10.958;2023-03-21T09:21:53;96236.00;;;10.83;77.25
56668;BME280;42542;48.360;10.958;2023-03-21T09:24:59;96229.19;;;10.96;77.24
56668;BME280;42542;48.360;10.958;2023-03-21T09:28:09;96230.56;;;11.09;76.18
56668;BME280;42542;48.360;10.958;2023-03-21T09:31:12;96236.09;;;11.15;74.99
56668;BME280;42542;48.360;10.958;2023-03-21T09:34:16;96227.72;;;11.26;74.54
56668;BME280;42542;48.360;10.958;2023-03-21T09:37:18;96227.75;;;11.34;74.70
56668;BME280;42542;48.360;10.958;2023-03-21T09:50:39;96221.75;;;11.81;70.84
56668;BME280;42542;48.360;10.958;2023-03-21T09:53:42;96221.72;;;11.89;71.40
56668;BME280;42542;48.360;10.958;2023-03-21T09:56:47;96220.69;;;11.98;71.21
56668;BME280;42542;48.360;10.958;2023-03-21T09:59:52;96210.28;;;12.11;70.83
56668;BME280;42542;48.360;10.958;2023-03-21T10:02:58;96214.63;;;12.21;69.95
56668;BME280;42542;48.360;10.958;2023-03-21T10:06:11;96207.56;;;12.28;68.76
56668;BME280;42542;48.360;10.958;2023-03-21T10:09:18;96215.25;;;12.39;67.25
56668;BME280;42542;48.360;10.958;2023-03-21T10:12:25;96212.72;;;12.45;67.26
56668;BME280;42542;48.360;10.958;2023-03-21T10:15:31;96203.28;;;12.49;66.46
56668;BME280;42542;48.360;10.958;2023-03-21T10:18:32;96200.06;;;12.54;65.60
56668;BME280;42542;48.360;10.958;2023-03-21T10:21:37;96185.16;;;12.60;65.50
56668;BME280;42542;48.360;10.958;2023-03-21T10:24:59;96183.25;;;12.68;66.33
56668;BME280;42542;48.360;10.958;2023-03-21T10:28:05;96171.00;;;12.74;65.08
56668;BME280;42542;48.360;10.958;2023-03-21T10:31:08;96168.06;;;12.83;66.01
56668;BME280;42542;48.360;10.958;2023-03-21T10:34:22;96160.47;;;12.95;66.03
56668;BME280;42542;48.360;10.958;2023-03-21T10:37:29;96169.09;;;13.05;63.41
56668;BME280;42542;48.360;10.958;2023-03-21T10:40:32;96171.78;;;13.05;63.44
56668;BME280;42542;48.360;10.958;2023-03-21T10:43:37;96169.59;;;13.09;63.29
56668;BME280;42542;48.360;10.958;2023-03-21T10:47:04;96167.59;;;13.11;63.01
56668;BME280;42542;48.360;10.958;2023-03-21T10:50:18;96158.66;;;13.18;62.74
56668;BME280;42542;48.360;10.958;2023-03-21T10:53:40;96161.75;;;13.30;62.59
56668;BME280;42542;48.360;10.958;2023-03-21T10:56:57;96159.84;;;13.39;63.22
56668;BME280;42542;48.360;10.958;2023-03-21T11:00:02;96155.88;;;13.49;63.26
56668;BME280;42542;48.360;10.958;2023-03-21T11:03:21;96153.84;;;13.51;61.14
56668;BME280;42542;48.360;10.958;2023-03-21T11:06:26;96155.25;;;13.62;63.00
56668;BME280;42542;48.360;10.958;2023-03-21T11:09:57;96151.31;;;13.73;61.18
56668;BME280;42542;48.360;10.958;2023-03-21T11:13:06;96149.72;;;13.78;62.01
56668;BME280;42542;48.360;10.958;2023-03-21T11:16:24;96155.03;;;13.86;61.31
56668;BME280;42542;48.360;10.958;2023-03-21T11:19:32;96149.31;;;13.89;59.84
56668;BME280;42542;48.360;10.958;2023-03-21T11:22:42;96146.78;;;13.88;58.45
56668;BME280;42542;48.360;10.958;2023-03-21T11:25:47;96139.56;;;13.88;58.72
56668;BME280;42542;48.360;10.958;2023-03-21T11:28:50;96137.50;;;13.90;59.53
56668;BME280;42542;48.360;10.958;2023-03-21T11:31:57;96133.72;;;13.99;60.40
56668;BME280;42542;48.360;10.958;2023-03-21T11:35:11;96129.34;;;13.98;57.56
56668;BME280;42542;48.360;10.958;2023-03-21T11:38:30;96130.09;;;14.07;57.43
56668;BME280;42542;48.360;10.958;2023-03-21T11:41:33;96133.63;;;14.07;57.43
56668;BME280;42542;48.360;10.958;2023-03-21T11:44:42;96112.78;;;14.10;56.25
56668;BME280;42542;48.360;10.958;2023-03-21T11:47:45;96119.25;;;14.15;56.89
56668;BME280;42542;48.360;10.958;2023-03-21T11:50:50;96106.09;;;14.20;56.84
56668;BME280;42542;48.360;10.958;2023-03-21T11:54:14;96102.47;;;14.28;56.97
56668;BME280;42542;48.360;10.958;2023-03-21T12:01:06;96085.78;;;14.32;54.92
56668;BME280;42542;48.360;10.958;2023-03-21T12:04:41;96090.25;;;14.40;55.02
56668;BME280;42542;48.360;10.958;2023-03-21T12:14:44;96080.59;;;14.45;55.20
56668;BME280;42542;48.360;10.958;2023-03-21T12:21:05;96074.28;;;14.53;52.52
56668;BME280;42542;48.360;10.958;2023-03-21T12:24:19;96062.75;;;14.59;53.44
56668;BME280;42542;48.360;10.958;2023-03-21T12:34:25;96054.03;;;14.78;53.74
56668;BME280;42542;48.360;10.958;2023-03-21T12:37:56;96044.44;;;14.91;53.74
56668;BME280;42542;48.360;10.958;2023-03-21T12:44:16;96038.25;;;15.18;54.64
56668;BME280;42542;48.360;10.958;2023-03-21T12:47:23;96035.16;;;15.21;52.21
56668;BME280;42542;48.360;10.958;2023-03-21T12:50:30;96029.22;;;15.26;52.27
56668;BME280;42542;48.360;10.958;2023-03-21T12:53:57;96027.97;;;15.28;52.43
56668;BME280;42542;48.360;10.958;2023-03-21T13:00:14;96016.31;;;15.21;52.37
56668;BME280;42542;48.360;10.958;2023-03-21T13:03:23;96021.31;;;15.24;51.53
56668;BME280;42542;48.360;10.958;2023-03-21T13:06:42;96012.22;;;15.25;52.17
56668;BME280;42542;48.360;10.958;2023-03-21T13:09:45;96016.13;;;15.22;51.81
56668;BME280;42542;48.360;10.958;2023-03-21T13:22:36;95992.38;;;15.33;53.42
56668;BME280;42542;48.360;10.958;2023-03-21T13:25:45;95989.69;;;15.33;52.60
56668;BME280;42542;48.360;10.958;2023-03-21T13:28:47;95990.75;;;15.38;52.60
56668;BME280;42542;48.360;10.958;2023-03-21T13:31:50;95991.41;;;15.40;52.64
56668;BME280;42542;48.360;10.958;2023-03-21T13:35:42;95981.19;;;15.36;52.22
56668;BME280;42542;48.360;10.958;2023-03-21T13:38:31;95983.72;;;15.37;51.86
56668;BME280;42542;48.360;10.958;2023-03-21T13:41:35;95977.53;;;15.43;51.77
56668;BME280;42542;48.360;10.958;2023-03-21T13:44:43;95977.69;;;15.35;51.45
56668;BME280;42542;48.360;10.958;2023-03-21T13:47:57;95973.53;;;15.33;51.54
56668;BME280;42542;48.360;10.958;2023-03-21T13:51:04;95976.03;;;15.34;51.30
56668;BME280;42542;48.360;10.958;2023-03-21T14:00:38;95963.38;;;15.35;51.43
56668;BME280;42542;48.360;10.958;2023-03-21T14:03:40;95962.38;;;15.42;52.10
56668;BME280;42542;48.360;10.958;2023-03-21T14:06:52;95954.34;;;15.49;51.86
56668;BME280;42542;48.360;10.958;2023-03-21T14:09:59;95959.41;;;15.58;52.17
56668;BME280;42542;48.360;10.958;2023-03-21T14:13:04;95951.63;;;15.70;52.25
56668;BME280;42542;48.360;10.958;2023-03-21T14:16:15;95950.16;;;15.74;50.35
56668;BME280;42542;48.360;10.958;2023-03-21T14:19:17;95950.16;;;15.74;50.53
56668;BME280;42542;48.360;10.958;2023-03-21T14:22:19;95949.81;;;15.84;50.41
56668;BME280;42542;48.360;10.958;2023-03-21T14:25:22;95940.47;;;15.86;49.55
56668;BME280;42542;48.360;10.958;2023-03-21T14:28:29;95936.41;;;16.04;50.82
56668;BME280;42542;48.360;10.958;2023-03-21T14:31:37;95936.41;;;16.10;48.85
56668;BME280;42542;48.360;10.958;2023-03-21T14:34:39;95936.81;;;16.07;47.58
56668;BME280;42542;48.360;10.958;2023-03-21T14:37:44;95927.88;;;16.07;47.49
56668;BME280;42542;48.360;10.958;2023-03-21T14:40:49;95925.84;;;16.15;48.41
56668;BME280;42542;48.360;10.958;2023-03-21T14:44:15;95922.56;;;16.20;47.36
56668;BME280;42542;48.360;10.958;2023-03-21T14:47:23;95920.69;;;16.20;47.01
56668;BME280;42542;48.360;10.958;2023-03-21T14:50:42;95924.00;;;16.22;46.99
56668;BME280;42542;48.360;10.958;2023-03-21T14:53:46;95920.28;;;16.30;47.02
56668;BME280;42542;48.360;10.958;2023-03-21T14:56:51;95927.53;;;16.29;47.10
56668;BME280;42542;48.360;10.958;2023-03-21T14:59:57;95925.88;;;16.28;46.44
56668;BME280;42542;48.360;10.958;2023-03-21T15:02:59;95927.13;;;16.19;47.16
56668;BME280;42542;48.360;10.958;2023-03-21T15:06:03;95923.97;;;16.09;46.76
56668;BME280;42542;48.360;10.958;2023-03-21T15:09:05;95924.16;;;16.08;47.68
56668;BME280;42542;48.360;10.958;2023-03-21T15:12:14;95925.00;;;16.08;47.57
56668;BME280;42542;48.360;10.958;2023-03-21T15:15:16;95918.53;;;15.96;47.72
56668;BME280;42542;48.360;10.958;2023-03-21T15:18:27;95917.03;;;15.87;48.10
56668;BME280;42542;48.360;10.958;2023-03-21T15:21:33;95917.66;;;15.82;48.31
56668;BME280;42542;48.360;10.958;2023-03-21T15:24:40;95902.69;;;15.73;48.42
56668;BME280;42542;48.360;10.958;2023-03-21T15:27:43;95922.38;;;15.74;48.86
56668;BME280;42542;48.360;10.958;2023-03-21T15:30:50;95910.72;;;15.60;48.14
56668;BME280;42542;48.360;10.958;2023-03-21T15:33:53;95911.94;;;15.57;49.01
56668;BME280;42542;48.360;10.958;2023-03-21T15:36:57;95916.09;;;15.53;48.56
56668;BME280;42542;48.360;10.958;2023-03-21T15:40:21;95916.41;;;15.44;48.31
56668;BME280;42542;48.360;10.958;2023-03-21T15:43:23;95910.78;;;15.39;48.14
56668;BME280;42542;48.360;10.958;2023-03-21T15:49:52;95911.97;;;15.30;48.30
56668;BME280;42542;48.360;10.958;2023-03-21T15:52:58;95909.25;;;15.23;48.85
56668;BME280;42542;48.360;10.958;2023-03-21T15:56:02;95917.09;;;15.18;49.21
56668;BME280;42542;48.360;10.958;2023-03-21T15:59:11;95909.59;;;15.13;49.11
56668;BME280;42542;48.360;10.958;2023-03-21T16:02:16;95911.25;;;15.14;49.87
56668;BME280;42542;48.360;10.958;2023-03-21T16:05:31;95913.53;;;15.11;49.45
56668;BME280;42542;48.360;10.958;2023-03-21T16:08:35;95913.09;;;15.07;49.32
56668;BME280;42542;48.360;10.958;2023-03-21T16:11:41;95904.78;;;15.02;50.00
56668;BME280;42542;48.360;10.958;2023-03-21T16:14:43;95903.94;;;15.02;50.39
56668;BME280;42542;48.360;10.958;2023-03-21T16:17:51;95906.81;;;15.00;50.14
56668;BME280;42542;48.360;10.958;2023-03-21T16:20:54;95914.66;;;14.95;50.25
56668;BME280;42542;48.360;10.958;2023-03-21T16:23:59;95916.28;;;14.90;50.42
56668;BME280;42542;48.360;10.958;2023-03-21T16:27:02;95915.00;;;14.85;50.49
56668;BME280;42542;48.360;10.958;2023-03-21T16:30:05;95912.91;;;14.81;50.43
56668;BME280;42542;48.360;10.958;2023-03-21T16:33:11;95914.31;;;14.77;50.63
56668;BME280;42542;48.360;10.958;2023-03-21T16:36:15;95916.94;;;14.70;51.57
56668;BME280;42542;48.360;10.958;2023-03-21T16:39:21;95922.50;;;14.62;50.89
56668;BME280;42542;48.360;10.958;2023-03-21T16:42:23;95917.47;;;14.59;51.69
56668;BME280;42542;48.360;10.958;2023-03-21T16:45:25;95929.63;;;14.55;51.40
56668;BME280;42542;48.360;10.958;2023-03-21T16:48:29;95923.19;;;14.50;51.63
56668;BME280;42542;48.360;10.958;2023-03-21T16:51:33;95931.44;;;14.48;51.82
56668;BME280;42542;48.360;10.958;2023-03-21T16:54:36;95924.59;;;14.45;52.11
56668;BME280;42542;48.360;10.958;2023-03-21T16:57:37;95926.66;;;14.43;52.52
56668;BME280;42542;48.360;10.958;2023-03-21T17:00:39;95930.94;;;14.38;52.65
56668;BME280;42542;48.360;10.958;2023-03-21T17:03:41;95933.44;;;14.39;53.04
56668;BME280;42542;48.360;10.958;2023-03-21T17:06:47;95930.44;;;14.34;53.23
56668;BME280;42542;48.360;10.958;2023-03-21T17:09:49;95935.41;;;14.31;53.03
56668;BME280;42542;48.360;10.958;2023-03-21T17:12:51;95933.28;;;14.26;53.24
56668;BME280;42542;48.360;10.958;2023-03-21T17:15:53;95934.50;;;14.24;53.34
56668;BME280;42542;48.360;10.958;2023-03-21T17:18:55;95940.91;;;14.23;53.61
56668;BME280;42542;48.360;10.958;2023-03-21T17:21:56;95937.75;;;14.19;54.55
56668;BME280;42542;48.360;10.958;2023-03-21T17:24:59;95929.44;;;14.14;54.38
56668;BME280;42542;48.360;10.958;2023-03-21T17:28:03;95935.38;;;14.10;54.90
56668;BME280;42542;48.360;10.958;2023-03-21T17:31:11;95936.78;;;14.05;55.14
56668;BME280;42542;48.360;10.958;2023-03-21T17:34:14;95943.56;;;14.01;56.61
56668;BME280;42542;48.360;10.958;2023-03-21T17:37:15;95937.09;;;13.96;58.76
56668;BME280;42542;48.360;10.958;2023-03-21T17:40:20;95945.72;;;13.91;59.91